createdAt,value
2023-08-15T00:02:58.455Z,101390.41
2023-08-15T00:08:00.030Z,101391.25
2023-08-15T00:13:01.487Z,101380.09
2023-08-15T00:18:03.123Z,101370.91
2023-08-15T00:23:04.884Z,101367.47
2023-08-15T00:28:06.677Z,101360.56
2023-08-15T00:33:08.199Z,101360.22
2023-08-15T00:38:09.715Z,101357.50
2023-08-15T00:43:11.232Z,101365.97
2023-08-15T00:48:13.053Z,101369.91
2023-08-15T00:53:17.748Z,101366.56
2023-08-15T00:58:19.268Z,101358.63
2023-08-15T01:03:21.136Z,101344.13
2023-08-15T01:08:22.661Z,101348.88
2023-08-15T01:13:40.368Z,101338.75
2023-08-15T01:19:06.901Z,101335.41
2023-08-15T01:24:08.830Z,101333.66
2023-08-15T01:29:10.264Z,101340.31
2023-08-15T01:34:13.477Z,101337.47
2023-08-15T01:39:23.111Z,101336.13
2023-08-15T01:44:26.055Z,101332.13
2023-08-15T01:49:27.509Z,101324.38
2023-08-15T01:54:29.429Z,101329.25
2023-08-15T01:59:32.234Z,101339.84
2023-08-15T02:04:34.291Z,101334.75
2023-08-15T02:09:35.792Z,101337.81
2023-08-15T02:14:37.303Z,101342.47
2023-08-15T02:19:38.773Z,101337.69
2023-08-15T02:24:40.226Z,101339.38
2023-08-15T02:29:41.723Z,101333.44
2023-08-15T02:34:43.169Z,101321.91
2023-08-15T02:39:44.635Z,101319.75
2023-08-15T02:44:46.913Z,101305.13
2023-08-15T02:49:48.379Z,101292.94
2023-08-15T02:54:49.830Z,101285.78
2023-08-15T02:59:51.320Z,101286.72
2023-08-15T03:04:52.791Z,101285.91
2023-08-15T03:09:54.338Z,101295.50
2023-08-15T03:14:57.187Z,101297.91
2023-08-15T03:19:59.677Z,101304.81
2023-08-15T03:25:01.257Z,101310.72
2023-08-15T03:30:02.908Z,101309.91
2023-08-15T03:35:05.371Z,101315.16
2023-08-15T03:40:07.684Z,101307.19
2023-08-15T03:45:09.475Z,101314.53
2023-08-15T03:50:10.945Z,101328.34
2023-08-15T03:55:12.414Z,101324.88
2023-08-15T04:00:14.237Z,101331.66
2023-08-15T04:05:15.888Z,101329.53
2023-08-15T04:10:17.399Z,101323.00
2023-08-15T04:15:19.341Z,101311.56
2023-08-15T04:20:20.797Z,101308.22
2023-08-15T04:25:22.273Z,101288.88
2023-08-15T04:30:23.789Z,101289.00
2023-08-15T04:35:26.090Z,101297.41
2023-08-15T04:40:36.928Z,101312.88
2023-08-15T04:45:38.550Z,101323.34
2023-08-15T04:50:40.629Z,101319.28
2023-08-15T04:55:42.199Z,101319.00
2023-08-15T05:00:43.687Z,101318.94
2023-08-15T05:05:45.231Z,101301.72
2023-08-15T05:10:46.818Z,101310.56
2023-08-15T05:15:48.348Z,101320.84
2023-08-15T05:20:49.966Z,101321.25
2023-08-15T05:25:51.668Z,101338.25
2023-08-15T05:30:53.344Z,101352.50
2023-08-15T05:35:55.409Z,101361.59
2023-08-15T05:40:57.534Z,101370.84
2023-08-15T05:45:58.982Z,101373.22
2023-08-15T05:51:00.490Z,101374.16
2023-08-15T05:56:01.968Z,101369.50
2023-08-15T06:01:03.479Z,101369.53
2023-08-15T06:06:05.040Z,101369.19
2023-08-15T06:11:06.963Z,101359.91
2023-08-15T06:16:08.416Z,101351.38
2023-08-15T06:21:10.111Z,101349.38
2023-08-15T06:26:11.581Z,101350.31
2023-08-15T06:31:13.067Z,101357.59
2023-08-15T06:36:14.545Z,101365.63
2023-08-15T06:41:16.124Z,101366.09
2023-08-15T06:46:17.658Z,101361.03
2023-08-15T06:51:19.202Z,101369.28
2023-08-15T06:56:21.771Z,101365.22
2023-08-15T07:01:23.293Z,101361.34
2023-08-15T07:06:24.915Z,101356.69
2023-08-15T07:11:26.449Z,101357.22
2023-08-15T07:16:27.945Z,101366.44
2023-08-15T07:21:29.420Z,101403.97
2023-08-15T07:26:30.868Z,101411.78
2023-08-15T07:31:32.476Z,101423.63
2023-08-15T07:36:33.956Z,101442.75
2023-08-15T07:41:35.440Z,101462.00
2023-08-15T07:46:36.891Z,101457.69
2023-08-15T07:51:38.355Z,101470.97
2023-08-15T07:56:39.846Z,101470.97
2023-08-15T08:01:41.386Z,101473.75
2023-08-15T08:06:42.884Z,101476.91
2023-08-15T08:11:44.374Z,101476.66
2023-08-15T08:16:45.841Z,101481.63
2023-08-15T08:21:47.319Z,101487.28
2023-08-15T08:26:48.782Z,101500.16
2023-08-15T08:31:50.483Z,101488.53
2023-08-15T08:36:51.942Z,101465.00
2023-08-15T08:41:53.469Z,101454.78
2023-08-15T08:46:55.564Z,101490.06
2023-08-15T08:51:57.383Z,101492.00
2023-08-15T08:57:01.400Z,101487.97
2023-08-15T09:02:03.529Z,101478.63
2023-08-15T09:07:05.001Z,101476.41
2023-08-15T09:12:06.619Z,101467.31
2023-08-15T09:17:11.072Z,101461.94
2023-08-15T09:22:22.040Z,101469.66
2023-08-15T09:27:24.287Z,101461.09
2023-08-15T09:32:25.829Z,101457.44
2023-08-15T09:37:27.533Z,101458.50
2023-08-15T09:42:29.043Z,101467.75
2023-08-15T09:47:30.569Z,101460.91
2023-08-15T09:52:32.102Z,101456.41
2023-08-15T09:57:33.602Z,101459.31
2023-08-15T10:02:36.088Z,101442.53
2023-08-15T10:07:38.634Z,101448.44
2023-08-15T10:12:42.177Z,101463.34
2023-08-15T10:17:44.007Z,101469.50
2023-08-15T10:22:45.508Z,101469.00
2023-08-15T10:27:49.482Z,101468.00
2023-08-15T10:32:51.089Z,101468.00
2023-08-15T10:37:52.582Z,101480.50
2023-08-15T10:43:03.288Z,101487.88
2023-08-15T10:48:06.393Z,101492.00
2023-08-15T10:53:07.958Z,101485.38
2023-08-15T10:58:11.429Z,101493.16
2023-08-15T11:03:13.015Z,101507.19
2023-08-15T11:08:19.930Z,101512.81
2023-08-15T11:13:21.358Z,101513.31
2023-08-15T11:18:22.920Z,101526.06
2023-08-15T11:23:24.498Z,101539.22
2023-08-15T11:28:27.340Z,101528.38
2023-08-15T11:33:32.067Z,101537.25
2023-08-15T11:38:35.720Z,101542.53
2023-08-15T11:43:37.259Z,101545.03
2023-08-15T11:48:38.769Z,101546.81
2023-08-15T11:53:49.836Z,101544.16
2023-08-15T11:58:51.388Z,101546.66
2023-08-15T12:03:53.658Z,101556.22
2023-08-15T12:08:55.195Z,101557.97
2023-08-15T12:13:56.696Z,101563.34
2023-08-15T12:18:58.617Z,101569.22
2023-08-15T12:24:00.087Z,101578.75
2023-08-15T12:29:01.581Z,101575.84
2023-08-15T12:34:03.195Z,101581.00
2023-08-15T12:39:04.911Z,101576.88
2023-08-15T12:44:06.405Z,101586.53
2023-08-15T12:49:07.843Z,101594.75
2023-08-15T12:54:09.330Z,101605.66
2023-08-15T12:59:10.967Z,101595.72
2023-08-15T13:04:12.470Z,101603.19
2023-08-15T13:09:13.939Z,101610.31
2023-08-15T13:14:15.434Z,101610.66
2023-08-15T13:19:16.918Z,101604.28
2023-08-15T13:24:18.511Z,101611.31
2023-08-15T13:29:20.242Z,101609.63
2023-08-15T13:34:21.679Z,101623.38
2023-08-15T13:39:23.331Z,101620.72
2023-08-15T13:44:24.828Z,101627.50
2023-08-15T13:49:26.262Z,101640.94
2023-08-15T13:54:27.777Z,101633.63
2023-08-15T13:59:29.277Z,101630.00
2023-08-15T14:04:30.717Z,101638.59
2023-08-15T14:09:32.194Z,101633.13
2023-08-15T14:14:33.725Z,101633.44
2023-08-15T14:19:35.194Z,101635.28
2023-08-15T14:24:36.664Z,101640.09
2023-08-15T14:29:38.106Z,101644.41
2023-08-15T14:34:39.560Z,101654.84
2023-08-15T14:39:41.276Z,101653.50
2023-08-15T14:44:42.785Z,101659.31
2023-08-15T14:49:44.300Z,101659.47
2023-08-15T14:54:45.749Z,101665.94
2023-08-15T14:59:47.545Z,101667.72
2023-08-15T15:04:49.046Z,101670.72
2023-08-15T15:09:50.590Z,101673.88
2023-08-15T15:14:52.069Z,101669.41
2023-08-15T15:19:53.550Z,101666.91
2023-08-15T15:24:55.050Z,101669.06
2023-08-15T15:29:56.533Z,101650.50
2023-08-15T15:34:57.976Z,101666.25
2023-08-15T15:40:00.886Z,101664.09
2023-08-15T15:45:02.469Z,101666.41
2023-08-15T15:50:04.118Z,101662.44
2023-08-15T15:55:07.495Z,101663.28
2023-08-15T16:00:10.265Z,101660.59
2023-08-15T16:05:12.595Z,101657.00
2023-08-15T16:10:14.201Z,101645.97
2023-08-15T16:15:15.741Z,101639.03
2023-08-15T16:20:17.231Z,101645.97
2023-08-15T16:25:18.776Z,101658.84
2023-08-15T16:30:20.373Z,101662.00
2023-08-15T16:35:21.966Z,101672.56
2023-08-15T16:40:23.668Z,101670.81
2023-08-15T16:45:25.121Z,101672.31
2023-08-15T16:50:26.637Z,101686.00
2023-08-15T16:55:28.780Z,101700.78
2023-08-15T17:00:30.768Z,101708.63
2023-08-15T17:05:32.264Z,101716.59
2023-08-15T17:10:33.862Z,101711.22
2023-08-15T17:15:35.431Z,101722.44
2023-08-15T17:20:37.435Z,101726.09
2023-08-15T17:25:38.956Z,101730.88
2023-08-15T17:30:40.474Z,101739.31
2023-08-15T17:35:43.705Z,101741.97
2023-08-15T17:40:45.317Z,101742.56
2023-08-15T17:45:46.886Z,101755.13
2023-08-15T17:50:48.665Z,101765.41
2023-08-15T17:55:50.171Z,101774.19
2023-08-15T18:00:51.733Z,101776.28
2023-08-15T18:05:53.207Z,101781.28
2023-08-15T18:10:54.736Z,101794.31
2023-08-15T18:15:56.305Z,101796.91
2023-08-15T18:20:57.873Z,101817.16
2023-08-15T18:25:59.668Z,101814.63
2023-08-15T18:31:01.191Z,101823.72
2023-08-15T18:36:02.769Z,101829.19
2023-08-15T18:41:04.377Z,101839.50
2023-08-15T18:46:05.893Z,101848.09
2023-08-15T18:51:07.601Z,101854.59
2023-08-15T18:56:09.075Z,101864.34
2023-08-15T19:01:10.595Z,101874.06
2023-08-15T19:06:12.168Z,101884.94
2023-08-15T19:11:13.656Z,101883.94
2023-08-15T19:16:15.144Z,101889.25
2023-08-15T19:21:16.667Z,101895.41
2023-08-15T19:26:18.164Z,101897.31
2023-08-15T19:31:19.650Z,101912.19
2023-08-15T19:36:21.185Z,101912.31
2023-08-15T19:41:22.711Z,101914.69
2023-08-15T19:46:24.198Z,101917.44
2023-08-15T19:51:25.804Z,101925.94
2023-08-15T19:56:27.323Z,101940.31
2023-08-15T20:01:28.883Z,101943.53
2023-08-15T20:06:30.392Z,101942.38
2023-08-15T20:11:31.859Z,101936.19
2023-08-15T20:16:33.462Z,101936.53
2023-08-15T20:21:34.976Z,101943.34
2023-08-15T20:26:36.455Z,101941.44
2023-08-15T20:31:38.013Z,101939.66
2023-08-15T20:36:39.513Z,101944.53
2023-08-15T20:41:41.022Z,101948.47
2023-08-15T20:46:42.550Z,101946.75
2023-08-15T20:51:44.169Z,101947.72
2023-08-15T20:56:45.665Z,101949.00
2023-08-15T21:01:47.148Z,101957.09
2023-08-15T21:06:48.857Z,101957.16
2023-08-15T21:11:50.340Z,101946.50
2023-08-15T21:16:52.296Z,101955.28
2023-08-15T21:21:53.887Z,101960.28
2023-08-15T21:26:55.915Z,101958.38
2023-08-15T21:31:57.419Z,101963.91
2023-08-15T21:36:58.922Z,101959.13
2023-08-15T21:42:00.474Z,101965.56
2023-08-15T21:47:01.933Z,101961.84
2023-08-15T21:52:03.556Z,101960.19
2023-08-15T21:57:05.710Z,101958.91
2023-08-15T22:02:07.188Z,101967.72
2023-08-15T22:07:08.799Z,101975.13
2023-08-15T22:12:12.437Z,101975.75
2023-08-15T22:17:13.966Z,101979.94
2023-08-15T22:22:15.522Z,101984.00
2023-08-15T22:27:17.090Z,101990.47
2023-08-15T22:32:18.578Z,101990.25
2023-08-15T22:37:20.303Z,101988.06
2023-08-15T22:42:21.970Z,101989.69
2023-08-15T22:47:23.739Z,101983.91
2023-08-15T22:52:25.558Z,101982.06
2023-08-15T22:57:27.012Z,101997.09
2023-08-15T23:02:28.471Z,101993.75
2023-08-15T23:07:30.025Z,101983.88
2023-08-15T23:12:31.619Z,101990.56
2023-08-15T23:17:33.139Z,101991.06
2023-08-15T23:22:34.710Z,101995.53
2023-08-15T23:27:36.346Z,102000.03
2023-08-15T23:32:37.869Z,102006.94
2023-08-15T23:37:39.353Z,101992.13
2023-08-15T23:42:41.620Z,101996.22
2023-08-15T23:47:43.220Z,101995.88
2023-08-15T23:52:44.820Z,101999.13
2023-08-15T23:57:46.317Z,102000.06
